sensor_id;sensor_type;location;lat;lon;timestamp;P1;durP1;ratioP1;P2;durP2;ratioP2
68700;SDS011;55682;51.114;5.882;2024-03-23T00:54:13;2.84;;;2.35;;
68700;SDS011;55682;51.114;5.882;2024-03-23T00:56:39;3.17;;;2.59;;
68700;SDS011;55682;51.114;5.882;2024-03-23T00:59:04;3.44;;;2.83;;
68700;SDS011;55682;51.114;5.882;2024-03-23T01:01:30;3.15;;;2.54;;
68700;SDS011;55682;51.114;5.882;2024-03-23T01:03:56;2.85;;;2.35;;
68700;SDS011;55682;51.114;5.882;2024-03-23T01:06:21;2.99;;;2.50;;
68700;SDS011;55682;51.114;5.882;2024-03-23T01:08:47;3.14;;;2.65;;
68700;SDS011;55682;51.114;5.882;2024-03-23T01:11:13;2.98;;;2.53;;
68700;SDS011;55682;51.114;5.882;2024-03-23T01:13:38;2.55;;;2.18;;
68700;SDS011;55682;51.114;5.882;2024-03-23T01:16:04;2.72;;;2.31;;
68700;SDS011;55682;51.114;5.882;2024-03-23T01:18:29;2.80;;;2.43;;
68700;SDS011;55682;51.114;5.882;2024-03-23T01:20:55;2.62;;;2.32;;
68700;SDS011;55682;51.114;5.882;2024-03-23T01:23:21;2.74;;;2.45;;
68700;SDS011;55682;51.114;5.882;2024-03-23T01:25:55;2.47;;;2.22;;
68700;SDS011;55682;51.114;5.882;2024-03-23T01:28:21;2.49;;;2.25;;
68700;SDS011;55682;51.114;5.882;2024-03-23T01:30:47;2.36;;;2.15;;
68700;SDS011;55682;51.114;5.882;2024-03-23T01:33:13;2.63;;;2.40;;
68700;SDS011;55682;51.114;5.882;2024-03-23T01:35:39;2.79;;;2.47;;
68700;SDS011;55682;51.114;5.882;2024-03-23T01:38:05;3.03;;;2.60;;
68700;SDS011;55682;51.114;5.882;2024-03-23T01:40:31;3.05;;;2.61;;
68700;SDS011;55682;51.114;5.882;2024-03-23T01:42:57;2.67;;;2.28;;
68700;SDS011;55682;51.114;5.882;2024-03-23T01:45:27;2.79;;;2.34;;
68700;SDS011;55682;51.114;5.882;2024-03-23T01:47:52;2.97;;;2.52;;
68700;SDS011;55682;51.114;5.882;2024-03-23T01:50:19;2.60;;;2.25;;
68700;SDS011;55682;51.114;5.882;2024-03-23T01:52:45;2.92;;;2.51;;
68700;SDS011;55682;51.114;5.882;2024-03-23T01:55:12;2.78;;;2.39;;
68700;SDS011;55682;51.114;5.882;2024-03-23T01:57:37;3.03;;;2.60;;
68700;SDS011;55682;51.114;5.882;2024-03-23T02:00:03;2.59;;;2.28;;
68700;SDS011;55682;51.114;5.882;2024-03-23T02:02:47;2.73;;;2.42;;
68700;SDS011;55682;51.114;5.882;2024-03-23T02:05:13;3.08;;;2.76;;
68700;SDS011;55682;51.114;5.882;2024-03-23T02:07:39;2.82;;;2.54;;
68700;SDS011;55682;51.114;5.882;2024-03-23T02:10:06;3.04;;;2.72;;
68700;SDS011;55682;51.114;5.882;2024-03-23T02:12:33;3.11;;;2.74;;
68700;SDS011;55682;51.114;5.882;2024-03-23T02:14:59;2.82;;;2.49;;
68700;SDS011;55682;51.114;5.882;2024-03-23T02:17:25;3.03;;;2.66;;
68700;SDS011;55682;51.114;5.882;2024-03-23T02:19:50;3.05;;;2.64;;
68700;SDS011;55682;51.114;5.882;2024-03-23T02:22:16;3.38;;;2.87;;
68700;SDS011;55682;51.114;5.882;2024-03-23T02:24:42;3.23;;;2.80;;
68700;SDS011;55682;51.114;5.882;2024-03-23T02:27:08;3.33;;;2.92;;
68700;SDS011;55682;51.114;5.882;2024-03-23T02:29:34;3.39;;;2.97;;
68700;SDS011;55682;51.114;5.882;2024-03-23T02:32:00;3.22;;;2.83;;
68700;SDS011;55682;51.114;5.882;2024-03-23T02:34:26;3.18;;;2.82;;
68700;SDS011;55682;51.114;5.882;2024-03-23T02:36:52;3.18;;;2.80;;
68700;SDS011;55682;51.114;5.882;2024-03-23T02:39:17;3.11;;;2.71;;
68700;SDS011;55682;51.114;5.882;2024-03-23T02:41:43;2.98;;;2.65;;
68700;SDS011;55682;51.114;5.882;2024-03-23T02:44:09;2.65;;;2.41;;
68700;SDS011;55682;51.114;5.882;2024-03-23T02:46:37;2.93;;;2.64;;
68700;SDS011;55682;51.114;5.882;2024-03-23T02:49:03;2.61;;;2.42;;
68700;SDS011;55682;51.114;5.882;2024-03-23T02:51:30;2.56;;;2.40;;
68700;SDS011;55682;51.114;5.882;2024-03-23T02:53:55;2.78;;;2.56;;
68700;SDS011;55682;51.114;5.882;2024-03-23T02:56:21;2.87;;;2.62;;
68700;SDS011;55682;51.114;5.882;2024-03-23T02:58:47;2.80;;;2.60;;
68700;SDS011;55682;51.114;5.882;2024-03-23T03:01:13;2.87;;;2.65;;
68700;SDS011;55682;51.114;5.882;2024-03-23T03:03:38;2.95;;;2.70;;
68700;SDS011;55682;51.114;5.882;2024-03-23T03:06:04;3.17;;;2.85;;
68700;SDS011;55682;51.114;5.882;2024-03-23T03:08:29;3.11;;;2.80;;
68700;SDS011;55682;51.114;5.882;2024-03-23T03:10:55;3.22;;;2.87;;
68700;SDS011;55682;51.114;5.882;2024-03-23T03:13:21;3.15;;;2.82;;
68700;SDS011;55682;51.114;5.882;2024-03-23T03:15:46;3.45;;;2.99;;
68700;SDS011;55682;51.114;5.882;2024-03-23T03:18:12;3.65;;;3.12;;
68700;SDS011;55682;51.114;5.882;2024-03-23T03:20:38;2.99;;;2.63;;
68700;SDS011;55682;51.114;5.882;2024-03-23T03:23:05;3.07;;;2.74;;
68700;SDS011;55682;51.114;5.882;2024-03-23T03:25:31;2.94;;;2.68;;
68700;SDS011;55682;51.114;5.882;2024-03-23T03:27:57;2.82;;;2.60;;
68700;SDS011;55682;51.114;5.882;2024-03-23T03:30:22;3.13;;;2.85;;
68700;SDS011;55682;51.114;5.882;2024-03-23T03:32:49;2.89;;;2.66;;
68700;SDS011;55682;51.114;5.882;2024-03-23T03:35:15;2.83;;;2.67;;
68700;SDS011;55682;51.114;5.882;2024-03-23T03:37:40;2.93;;;2.78;;
68700;SDS011;55682;51.114;5.882;2024-03-23T03:40:06;2.97;;;2.74;;
68700;SDS011;55682;51.114;5.882;2024-03-23T03:42:34;3.12;;;2.89;;
68700;SDS011;55682;51.114;5.882;2024-03-23T03:45:00;3.44;;;3.20;;
68700;SDS011;55682;51.114;5.882;2024-03-23T03:47:26;3.00;;;2.76;;
68700;SDS011;55682;51.114;5.882;2024-03-23T03:49:51;3.05;;;2.82;;
68700;SDS011;55682;51.114;5.882;2024-03-23T03:52:17;3.06;;;2.82;;
68700;SDS011;55682;51.114;5.882;2024-03-23T03:54:43;3.13;;;2.88;;
68700;SDS011;55682;51.114;5.882;2024-03-23T03:57:08;3.33;;;3.01;;
68700;SDS011;55682;51.114;5.882;2024-03-23T03:59:34;3.61;;;3.27;;
68700;SDS011;55682;51.114;5.882;2024-03-23T04:01:59;3.91;;;3.48;;
68700;SDS011;55682;51.114;5.882;2024-03-23T04:04:25;3.99;;;3.55;;
68700;SDS011;55682;51.114;5.882;2024-03-23T04:06:57;3.75;;;3.38;;
68700;SDS011;55682;51.114;5.882;2024-03-23T04:09:26;3.56;;;3.28;;
68700;SDS011;55682;51.114;5.882;2024-03-23T04:11:52;3.16;;;2.94;;
68700;SDS011;55682;51.114;5.882;2024-03-23T04:14:17;3.26;;;3.10;;
68700;SDS011;55682;51.114;5.882;2024-03-23T04:16:43;3.34;;;3.22;;
68700;SDS011;55682;51.114;5.882;2024-03-23T04:19:08;3.02;;;2.95;;
68700;SDS011;55682;51.114;5.882;2024-03-23T04:21:34;3.23;;;3.09;;
68700;SDS011;55682;51.114;5.882;2024-03-23T04:24:01;3.32;;;3.15;;
68700;SDS011;55682;51.114;5.882;2024-03-23T04:26:26;3.14;;;2.98;;
68700;SDS011;55682;51.114;5.882;2024-03-23T04:28:53;3.47;;;3.23;;
68700;SDS011;55682;51.114;5.882;2024-03-23T04:31:19;3.63;;;3.35;;
68700;SDS011;55682;51.114;5.882;2024-03-23T04:33:44;3.39;;;3.15;;
68700;SDS011;55682;51.114;5.882;2024-03-23T04:36:10;3.65;;;3.40;;
68700;SDS011;55682;51.114;5.882;2024-03-23T04:38:35;3.15;;;2.99;;
68700;SDS011;55682;51.114;5.882;2024-03-23T04:41:01;3.39;;;3.26;;
68700;SDS011;55682;51.114;5.882;2024-03-23T04:43:27;3.48;;;3.32;;
68700;SDS011;55682;51.114;5.882;2024-03-23T04:45:53;3.62;;;3.43;;
68700;SDS011;55682;51.114;5.882;2024-03-23T04:48:22;3.61;;;3.42;;
68700;SDS011;55682;51.114;5.882;2024-03-23T04:50:48;4.33;;;4.00;;
68700;SDS011;55682;51.114;5.882;2024-03-23T04:53:15;4.09;;;3.79;;
68700;SDS011;55682;51.114;5.882;2024-03-23T04:55:41;3.86;;;3.62;;
68700;SDS011;55682;51.114;5.882;2024-03-23T04:58:07;4.16;;;3.96;;
68700;SDS011;55682;51.114;5.882;2024-03-23T05:00:43;3.92;;;3.76;;
68700;SDS011;55682;51.114;5.882;2024-03-23T05:03:08;4.02;;;3.89;;
68700;SDS011;55682;51.114;5.882;2024-03-23T05:08:23;4.15;;;3.92;;
68700;SDS011;55682;51.114;5.882;2024-03-23T05:10:49;3.77;;;3.59;;
68700;SDS011;55682;51.114;5.882;2024-03-23T05:13:15;3.82;;;3.65;;
68700;SDS011;55682;51.114;5.882;2024-03-23T05:15:41;3.75;;;3.65;;
68700;SDS011;55682;51.114;5.882;2024-03-23T05:18:06;3.72;;;3.60;;
68700;SDS011;55682;51.114;5.882;2024-03-23T05:20:32;3.86;;;3.73;;
68700;SDS011;55682;51.114;5.882;2024-03-23T05:22:58;3.97;;;3.82;;
68700;SDS011;55682;51.114;5.882;2024-03-23T05:25:23;3.44;;;3.34;;
68700;SDS011;55682;51.114;5.882;2024-03-23T05:27:49;3.92;;;3.82;;
68700;SDS011;55682;51.114;5.882;2024-03-23T05:30:15;4.04;;;3.91;;
68700;SDS011;55682;51.114;5.882;2024-03-23T05:32:40;4.15;;;3.98;;
68700;SDS011;55682;51.114;5.882;2024-03-23T05:35:07;4.15;;;3.99;;
68700;SDS011;55682;51.114;5.882;2024-03-23T05:37:34;4.34;;;4.24;;
68700;SDS011;55682;51.114;5.882;2024-03-23T05:40:00;4.22;;;4.18;;
68700;SDS011;55682;51.114;5.882;2024-03-23T05:42:28;4.59;;;4.49;;
68700;SDS011;55682;51.114;5.882;2024-03-23T05:44:54;4.77;;;4.65;;
68700;SDS011;55682;51.114;5.882;2024-03-23T05:47:20;4.42;;;4.34;;
68700;SDS011;55682;51.114;5.882;2024-03-23T05:49:46;4.79;;;4.65;;
68700;SDS011;55682;51.114;5.882;2024-03-23T05:52:12;4.75;;;4.59;;
68700;SDS011;55682;51.114;5.882;2024-03-23T05:54:38;4.72;;;4.58;;
68700;SDS011;55682;51.114;5.882;2024-03-23T05:57:04;4.63;;;4.49;;
68700;SDS011;55682;51.114;5.882;2024-03-23T05:59:32;5.24;;;5.10;;
68700;SDS011;55682;51.114;5.882;2024-03-23T06:01:58;5.21;;;5.12;;
68700;SDS011;55682;51.114;5.882;2024-03-23T06:04:24;4.68;;;4.58;;
68700;SDS011;55682;51.114;5.882;2024-03-23T06:06:50;5.16;;;5.00;;
68700;SDS011;55682;51.114;5.882;2024-03-23T06:09:17;5.18;;;5.00;;
68700;SDS011;55682;51.114;5.882;2024-03-23T06:11:44;5.01;;;4.86;;
68700;SDS011;55682;51.114;5.882;2024-03-23T06:14:10;4.91;;;4.80;;
68700;SDS011;55682;51.114;5.882;2024-03-23T06:16:35;4.86;;;4.71;;
68700;SDS011;55682;51.114;5.882;2024-03-23T06:19:01;5.03;;;4.90;;
68700;SDS011;55682;51.114;5.882;2024-03-23T06:21:29;4.75;;;4.67;;
68700;SDS011;55682;51.114;5.882;2024-03-23T06:23:54;4.44;;;4.38;;
68700;SDS011;55682;51.114;5.882;2024-03-23T06:26:20;4.21;;;4.13;;
68700;SDS011;55682;51.114;5.882;2024-03-23T06:28:46;4.53;;;4.43;;
68700;SDS011;55682;51.114;5.882;2024-03-23T06:31:13;4.71;;;4.65;;
68700;SDS011;55682;51.114;5.882;2024-03-23T06:33:38;5.29;;;5.25;;
68700;SDS011;55682;51.114;5.882;2024-03-23T06:36:08;5.03;;;4.97;;
68700;SDS011;55682;51.114;5.882;2024-03-23T06:38:36;4.37;;;4.29;;
68700;SDS011;55682;51.114;5.882;2024-03-23T06:41:03;4.19;;;4.14;;
68700;SDS011;55682;51.114;5.882;2024-03-23T06:43:31;3.79;;;3.77;;
68700;SDS011;55682;51.114;5.882;2024-03-23T06:45:57;2.96;;;2.95;;
68700;SDS011;55682;51.114;5.882;2024-03-23T06:48:22;3.17;;;3.15;;
68700;SDS011;55682;51.114;5.882;2024-03-23T06:50:48;2.85;;;2.83;;
68700;SDS011;55682;51.114;5.882;2024-03-23T06:53:14;2.50;;;2.50;;
68700;SDS011;55682;51.114;5.882;2024-03-23T06:55:41;2.45;;;2.45;;
68700;SDS011;55682;51.114;5.882;2024-03-23T06:58:07;2.24;;;2.24;;
68700;SDS011;55682;51.114;5.882;2024-03-23T07:00:33;2.29;;;2.27;;
68700;SDS011;55682;51.114;5.882;2024-03-23T07:02:59;2.04;;;2.03;;
68700;SDS011;55682;51.114;5.882;2024-03-23T07:05:25;1.98;;;1.94;;
68700;SDS011;55682;51.114;5.882;2024-03-23T07:07:50;1.89;;;1.86;;
68700;SDS011;55682;51.114;5.882;2024-03-23T07:10:16;1.51;;;1.49;;
68700;SDS011;55682;51.114;5.882;2024-03-23T07:12:43;1.76;;;1.74;;
68700;SDS011;55682;51.114;5.882;2024-03-23T07:15:09;1.75;;;1.73;;
68700;SDS011;55682;51.114;5.882;2024-03-23T07:17:34;1.80;;;1.77;;
68700;SDS011;55682;51.114;5.882;2024-03-23T07:20:01;1.72;;;1.71;;
68700;SDS011;55682;51.114;5.882;2024-03-23T07:22:32;1.80;;;1.76;;
68700;SDS011;55682;51.114;5.882;2024-03-23T07:25:00;1.98;;;1.91;;
68700;SDS011;55682;51.114;5.882;2024-03-23T07:27:26;2.18;;;2.10;;
68700;SDS011;55682;51.114;5.882;2024-03-23T07:29:52;2.56;;;2.50;;
68700;SDS011;55682;51.114;5.882;2024-03-23T07:32:17;2.65;;;2.65;;
68700;SDS011;55682;51.114;5.882;2024-03-23T07:34:43;2.87;;;2.87;;
68700;SDS011;55682;51.114;5.882;2024-03-23T07:37:10;2.81;;;2.80;;
68700;SDS011;55682;51.114;5.882;2024-03-23T07:39:36;3.11;;;3.11;;
68700;SDS011;55682;51.114;5.882;2024-03-23T07:42:02;3.07;;;3.06;;
68700;SDS011;55682;51.114;5.882;2024-03-23T07:44:27;3.37;;;3.35;;
68700;SDS011;55682;51.114;5.882;2024-03-23T07:46:53;3.70;;;3.69;;
68700;SDS011;55682;51.114;5.882;2024-03-23T07:49:18;3.67;;;3.65;;
68700;SDS011;55682;51.114;5.882;2024-03-23T07:51:44;3.74;;;3.72;;
68700;SDS011;55682;51.114;5.882;2024-03-23T07:54:10;3.68;;;3.67;;
68700;SDS011;55682;51.114;5.882;2024-03-23T07:56:36;3.95;;;3.95;;
68700;SDS011;55682;51.114;5.882;2024-03-23T07:59:01;3.91;;;3.90;;
68700;SDS011;55682;51.114;5.882;2024-03-23T08:01:28;3.91;;;3.86;;
68700;SDS011;55682;51.114;5.882;2024-03-23T08:03:54;3.81;;;3.79;;
68700;SDS011;55682;51.114;5.882;2024-03-23T08:06:20;3.53;;;3.49;;
68700;SDS011;55682;51.114;5.882;2024-03-23T08:08:50;3.53;;;3.46;;
68700;SDS011;55682;51.114;5.882;2024-03-23T08:11:28;3.70;;;3.61;;
68700;SDS011;55682;51.114;5.882;2024-03-23T08:13:55;3.82;;;3.69;;
68700;SDS011;55682;51.114;5.882;2024-03-23T08:16:21;3.72;;;3.58;;
68700;SDS011;55682;51.114;5.882;2024-03-23T08:18:47;3.67;;;3.55;;
68700;SDS011;55682;51.114;5.882;2024-03-23T08:21:13;3.68;;;3.55;;
68700;SDS011;55682;51.114;5.882;2024-03-23T08:23:39;4.14;;;3.94;;
68700;SDS011;55682;51.114;5.882;2024-03-23T08:26:05;4.07;;;3.82;;
68700;SDS011;55682;51.114;5.882;2024-03-23T08:28:35;3.93;;;3.63;;
68700;SDS011;55682;51.114;5.882;2024-03-23T08:31:09;3.73;;;3.47;;
68700;SDS011;55682;51.114;5.882;2024-03-23T08:33:36;3.29;;;3.11;;
68700;SDS011;55682;51.114;5.882;2024-03-23T08:36:04;3.23;;;3.02;;
68700;SDS011;55682;51.114;5.882;2024-03-23T08:38:31;3.03;;;2.82;;
68700;SDS011;55682;51.114;5.882;2024-03-23T08:43:26;3.03;;;2.85;;
68700;SDS011;55682;51.114;5.882;2024-03-23T08:45:52;2.71;;;2.53;;
68700;SDS011;55682;51.114;5.882;2024-03-23T08:48:19;2.71;;;2.50;;
68700;SDS011;55682;51.114;5.882;2024-03-23T08:50:57;2.67;;;2.47;;
68700;SDS011;55682;51.114;5.882;2024-03-23T08:53:33;2.80;;;2.59;;
68700;SDS011;55682;51.114;5.882;2024-03-23T08:56:00;2.57;;;2.34;;
68700;SDS011;55682;51.114;5.882;2024-03-23T08:58:29;2.81;;;2.53;;
68700;SDS011;55682;51.114;5.882;2024-03-23T09:00:56;2.71;;;2.43;;
68700;SDS011;55682;51.114;5.882;2024-03-23T09:03:28;2.69;;;2.41;;
68700;SDS011;55682;51.114;5.882;2024-03-23T09:05:54;2.52;;;2.30;;
68700;SDS011;55682;51.114;5.882;2024-03-23T09:08:20;2.56;;;2.35;;
68700;SDS011;55682;51.114;5.882;2024-03-23T09:10:47;2.50;;;2.29;;
68700;SDS011;55682;51.114;5.882;2024-03-23T09:13:13;2.39;;;2.20;;
68700;SDS011;55682;51.114;5.882;2024-03-23T09:15:49;2.39;;;2.22;;
68700;SDS011;55682;51.114;5.882;2024-03-23T09:18:16;2.40;;;2.20;;
68700;SDS011;55682;51.114;5.882;2024-03-23T09:20:41;2.38;;;2.20;;
68700;SDS011;55682;51.114;5.882;2024-03-23T09:23:08;2.24;;;2.12;;
68700;SDS011;55682;51.114;5.882;2024-03-23T09:25:40;2.05;;;1.98;;
68700;SDS011;55682;51.114;5.882;2024-03-23T09:28:06;2.35;;;2.29;;
68700;SDS011;55682;51.114;5.882;2024-03-23T09:30:34;2.39;;;2.34;;
68700;SDS011;55682;51.114;5.882;2024-03-23T09:33:00;2.20;;;2.18;;
68700;SDS011;55682;51.114;5.882;2024-03-23T09:35:26;1.91;;;1.91;;
68700;SDS011;55682;51.114;5.882;2024-03-23T09:37:52;2.15;;;2.13;;
68700;SDS011;55682;51.114;5.882;2024-03-23T09:40:18;2.30;;;2.28;;
68700;SDS011;55682;51.114;5.882;2024-03-23T09:42:43;1.96;;;1.92;;
68700;SDS011;55682;51.114;5.882;2024-03-23T09:45:17;1.91;;;1.88;;
68700;SDS011;55682;51.114;5.882;2024-03-23T09:47:47;2.19;;;2.09;;
68700;SDS011;55682;51.114;5.882;2024-03-23T09:50:13;2.31;;;2.20;;
68700;SDS011;55682;51.114;5.882;2024-03-23T09:52:39;2.50;;;2.34;;
68700;SDS011;55682;51.114;5.882;2024-03-23T09:55:07;2.20;;;2.06;;
68700;SDS011;55682;51.114;5.882;2024-03-23T09:57:33;2.33;;;2.17;;
68700;SDS011;55682;51.114;5.882;2024-03-23T09:59:59;2.38;;;2.23;;
68700;SDS011;55682;51.114;5.882;2024-03-23T10:02:25;1.97;;;1.85;;
68700;SDS011;55682;51.114;5.882;2024-03-23T10:04:51;1.50;;;1.40;;
68700;SDS011;55682;51.114;5.882;2024-03-23T10:07:20;1.07;;;1.01;;
68700;SDS011;55682;51.114;5.882;2024-03-23T10:09:47;1.07;;;1.01;;
68700;SDS011;55682;51.114;5.882;2024-03-23T10:12:14;1.21;;;1.16;;
68700;SDS011;55682;51.114;5.882;2024-03-23T10:14:42;1.17;;;1.13;;
68700;SDS011;55682;51.114;5.882;2024-03-23T10:19:41;1.02;;;0.98;;
68700;SDS011;55682;51.114;5.882;2024-03-23T10:22:08;0.93;;;0.89;;
68700;SDS011;55682;51.114;5.882;2024-03-23T10:24:34;0.79;;;0.76;;
68700;SDS011;55682;51.114;5.882;2024-03-23T10:27:00;0.81;;;0.76;;
68700;SDS011;55682;51.114;5.882;2024-03-23T10:29:26;0.86;;;0.81;;
68700;SDS011;55682;51.114;5.882;2024-03-23T10:31:55;1.00;;;0.94;;
68700;SDS011;55682;51.114;5.882;2024-03-23T10:34:33;1.02;;;0.96;;
68700;SDS011;55682;51.114;5.882;2024-03-23T10:36:59;1.04;;;0.97;;
68700;SDS011;55682;51.114;5.882;2024-03-23T10:39:29;1.29;;;1.18;;
68700;SDS011;55682;51.114;5.882;2024-03-23T10:41:58;1.37;;;1.26;;
68700;SDS011;55682;51.114;5.882;2024-03-23T10:44:29;1.32;;;1.21;;
68700;SDS011;55682;51.114;5.882;2024-03-23T10:46:59;1.33;;;1.23;;
68700;SDS011;55682;51.114;5.882;2024-03-23T10:49:27;1.47;;;1.38;;
68700;SDS011;55682;51.114;5.882;2024-03-23T10:52:02;1.57;;;1.49;;
68700;SDS011;55682;51.114;5.882;2024-03-23T10:54:29;1.80;;;1.68;;
68700;SDS011;55682;51.114;5.882;2024-03-23T10:57:06;1.57;;;1.44;;
68700;SDS011;55682;51.114;5.882;2024-03-23T10:59:39;1.65;;;1.54;;
68700;SDS011;55682;51.114;5.882;2024-03-23T11:02:06;1.24;;;1.19;;
68700;SDS011;55682;51.114;5.882;2024-03-23T11:04:43;1.41;;;1.41;;
68700;SDS011;55682;51.114;5.882;2024-03-23T11:09:50;1.78;;;1.78;;
68700;SDS011;55682;51.114;5.882;2024-03-23T11:14:51;1.68;;;1.68;;
68700;SDS011;55682;51.114;5.882;2024-03-23T11:17:24;1.54;;;1.54;;
68700;SDS011;55682;51.114;5.882;2024-03-23T11:19:55;1.69;;;1.69;;
68700;SDS011;55682;51.114;5.882;2024-03-23T11:25:15;0.94;;;0.94;;
68700;SDS011;55682;51.114;5.882;2024-03-23T11:27:51;0.86;;;0.85;;
68700;SDS011;55682;51.114;5.882;2024-03-23T11:32:45;0.66;;;0.64;;
68700;SDS011;55682;51.114;5.882;2024-03-23T11:35:31;0.56;;;0.53;;
68700;SDS011;55682;51.114;5.882;2024-03-23T11:38:03;0.39;;;0.37;;
68700;SDS011;55682;51.114;5.882;2024-03-23T11:40:39;0.44;;;0.42;;
68700;SDS011;55682;51.114;5.882;2024-03-23T11:43:07;0.49;;;0.47;;
68700;SDS011;55682;51.114;5.882;2024-03-23T11:45:36;0.73;;;0.69;;
68700;SDS011;55682;51.114;5.882;2024-03-23T11:48:05;0.85;;;0.79;;
68700;SDS011;55682;51.114;5.882;2024-03-23T11:50:32;0.92;;;0.85;;
68700;SDS011;55682;51.114;5.882;2024-03-23T11:53:06;0.86;;;0.79;;
68700;SDS011;55682;51.114;5.882;2024-03-23T11:55:38;1.09;;;1.00;;
68700;SDS011;55682;51.114;5.882;2024-03-23T11:58:05;1.07;;;0.97;;
68700;SDS011;55682;51.114;5.882;2024-03-23T12:00:31;1.04;;;0.96;;
68700;SDS011;55682;51.114;5.882;2024-03-23T12:03:04;1.07;;;1.00;;
68700;SDS011;55682;51.114;5.882;2024-03-23T12:05:31;0.98;;;0.90;;
68700;SDS011;55682;51.114;5.882;2024-03-23T12:10:50;1.07;;;0.95;;
68700;SDS011;55682;51.114;5.882;2024-03-23T12:13:19;1.29;;;1.15;;
68700;SDS011;55682;51.114;5.882;2024-03-23T12:15:46;1.37;;;1.22;;
68700;SDS011;55682;51.114;5.882;2024-03-23T12:18:14;1.39;;;1.26;;
68700;SDS011;55682;51.114;5.882;2024-03-23T12:20:40;1.03;;;0.94;;
68700;SDS011;55682;51.114;5.882;2024-03-23T12:23:10;1.35;;;1.24;;
68700;SDS011;55682;51.114;5.882;2024-03-23T12:25:39;1.40;;;1.31;;
68700;SDS011;55682;51.114;5.882;2024-03-23T12:28:06;1.31;;;1.23;;
68700;SDS011;55682;51.114;5.882;2024-03-23T12:30:33;1.49;;;1.40;;
68700;SDS011;55682;51.114;5.882;2024-03-23T12:32:59;1.64;;;1.57;;
68700;SDS011;55682;51.114;5.882;2024-03-23T12:35:25;1.40;;;1.37;;
68700;SDS011;55682;51.114;5.882;2024-03-23T12:37:51;1.70;;;1.67;;
68700;SDS011;55682;51.114;5.882;2024-03-23T12:40:16;1.83;;;1.74;;
68700;SDS011;55682;51.114;5.882;2024-03-23T12:42:42;1.90;;;1.82;;
68700;SDS011;55682;51.114;5.882;2024-03-23T12:45:08;1.72;;;1.70;;
68700;SDS011;55682;51.114;5.882;2024-03-23T12:47:34;1.70;;;1.70;;
68700;SDS011;55682;51.114;5.882;2024-03-23T12:50:00;1.81;;;1.81;;
68700;SDS011;55682;51.114;5.882;2024-03-23T12:52:25;2.00;;;2.00;;
68700;SDS011;55682;51.114;5.882;2024-03-23T12:54:54;1.33;;;1.33;;
68700;SDS011;55682;51.114;5.882;2024-03-23T12:57:21;0.84;;;0.84;;
68700;SDS011;55682;51.114;5.882;2024-03-23T12:59:48;0.62;;;0.62;;
68700;SDS011;55682;51.114;5.882;2024-03-23T13:02:16;1.33;;;1.33;;
68700;SDS011;55682;51.114;5.882;2024-03-23T13:04:44;0.67;;;0.67;;
68700;SDS011;55682;51.114;5.882;2024-03-23T13:07:10;0.54;;;0.54;;
68700;SDS011;55682;51.114;5.882;2024-03-23T13:09:35;0.51;;;0.51;;
68700;SDS011;55682;51.114;5.882;2024-03-23T13:12:01;0.60;;;0.58;;
68700;SDS011;55682;51.114;5.882;2024-03-23T13:14:27;0.74;;;0.72;;
68700;SDS011;55682;51.114;5.882;2024-03-23T13:16:53;0.96;;;0.92;;
68700;SDS011;55682;51.114;5.882;2024-03-23T13:19:18;1.04;;;1.01;;
68700;SDS011;55682;51.114;5.882;2024-03-23T13:21:46;1.11;;;1.11;;
68700;SDS011;55682;51.114;5.882;2024-03-23T13:24:12;1.47;;;1.47;;
68700;SDS011;55682;51.114;5.882;2024-03-23T13:26:37;1.54;;;1.54;;
68700;SDS011;55682;51.114;5.882;2024-03-23T13:29:03;1.21;;;1.21;;
68700;SDS011;55682;51.114;5.882;2024-03-23T13:31:29;0.90;;;0.90;;
68700;SDS011;55682;51.114;5.882;2024-03-23T13:33:54;1.06;;;1.06;;
68700;SDS011;55682;51.114;5.882;2024-03-23T13:36:20;0.88;;;0.88;;
68700;SDS011;55682;51.114;5.882;2024-03-23T13:38:46;1.23;;;1.23;;
68700;SDS011;55682;51.114;5.882;2024-03-23T13:41:11;1.46;;;1.46;;
68700;SDS011;55682;51.114;5.882;2024-03-23T13:43:37;1.42;;;1.42;;
68700;SDS011;55682;51.114;5.882;2024-03-23T13:46:03;1.19;;;1.19;;
68700;SDS011;55682;51.114;5.882;2024-03-23T13:48:29;1.09;;;1.09;;
68700;SDS011;55682;51.114;5.882;2024-03-23T13:51:01;1.07;;;1.07;;
68700;SDS011;55682;51.114;5.882;2024-03-23T13:53:28;1.12;;;1.12;;
68700;SDS011;55682;51.114;5.882;2024-03-23T13:55:54;1.12;;;1.12;;
68700;SDS011;55682;51.114;5.882;2024-03-23T13:58:20;1.03;;;1.03;;
68700;SDS011;55682;51.114;5.882;2024-03-23T14:00:46;0.99;;;0.99;;
68700;SDS011;55682;51.114;5.882;2024-03-23T14:03:12;0.87;;;0.87;;
68700;SDS011;55682;51.114;5.882;2024-03-23T14:05:39;0.91;;;0.91;;
68700;SDS011;55682;51.114;5.882;2024-03-23T14:08:06;0.93;;;0.93;;
68700;SDS011;55682;51.114;5.882;2024-03-23T14:10:33;1.07;;;1.07;;
68700;SDS011;55682;51.114;5.882;2024-03-23T14:12:59;1.09;;;1.09;;
68700;SDS011;55682;51.114;5.882;2024-03-23T14:15:26;1.30;;;1.30;;
68700;SDS011;55682;51.114;5.882;2024-03-23T14:17:52;1.48;;;1.48;;
68700;SDS011;55682;51.114;5.882;2024-03-23T14:20:17;1.50;;;1.50;;
68700;SDS011;55682;51.114;5.882;2024-03-23T14:22:43;1.40;;;1.40;;
68700;SDS011;55682;51.114;5.882;2024-03-23T14:25:09;1.31;;;1.31;;
68700;SDS011;55682;51.114;5.882;2024-03-23T14:27:35;1.24;;;1.24;;
68700;SDS011;55682;51.114;5.882;2024-03-23T14:30:03;1.36;;;1.35;;
68700;SDS011;55682;51.114;5.882;2024-03-23T14:32:30;1.10;;;1.10;;
68700;SDS011;55682;51.114;5.882;2024-03-23T14:35:02;0.99;;;0.99;;
68700;SDS011;55682;51.114;5.882;2024-03-23T14:37:38;1.12;;;1.12;;
68700;SDS011;55682;51.114;5.882;2024-03-23T14:40:07;1.11;;;1.11;;
68700;SDS011;55682;51.114;5.882;2024-03-23T14:42:33;1.13;;;1.13;;
68700;SDS011;55682;51.114;5.882;2024-03-23T14:44:59;1.33;;;1.33;;
68700;SDS011;55682;51.114;5.882;2024-03-23T14:47:24;1.30;;;1.30;;
68700;SDS011;55682;51.114;5.882;2024-03-23T14:49:50;1.22;;;1.20;;
68700;SDS011;55682;51.114;5.882;2024-03-23T14:52:16;1.35;;;1.34;;
68700;SDS011;55682;51.114;5.882;2024-03-23T14:54:43;1.28;;;1.27;;
68700;SDS011;55682;51.114;5.882;2024-03-23T14:57:09;1.27;;;1.26;;
68700;SDS011;55682;51.114;5.882;2024-03-23T14:59:35;1.19;;;1.19;;
68700;SDS011;55682;51.114;5.882;2024-03-23T15:02:03;1.22;;;1.22;;
68700;SDS011;55682;51.114;5.882;2024-03-23T15:04:30;1.12;;;1.12;;
68700;SDS011;55682;51.114;5.882;2024-03-23T15:06:55;1.33;;;1.33;;
68700;SDS011;55682;51.114;5.882;2024-03-23T15:09:21;1.09;;;1.09;;
68700;SDS011;55682;51.114;5.882;2024-03-23T15:11:47;1.25;;;1.25;;
68700;SDS011;55682;51.114;5.882;2024-03-23T15:14:12;1.56;;;1.56;;
68700;SDS011;55682;51.114;5.882;2024-03-23T15:16:38;1.49;;;1.49;;
68700;SDS011;55682;51.114;5.882;2024-03-23T15:19:03;1.54;;;1.54;;
68700;SDS011;55682;51.114;5.882;2024-03-23T15:21:31;1.70;;;1.70;;
68700;SDS011;55682;51.114;5.882;2024-03-23T15:23:57;1.67;;;1.67;;
68700;SDS011;55682;51.114;5.882;2024-03-23T15:26:23;1.82;;;1.82;;
68700;SDS011;55682;51.114;5.882;2024-03-23T15:28:49;1.42;;;1.42;;
68700;SDS011;55682;51.114;5.882;2024-03-23T15:31:24;1.18;;;1.18;;
68700;SDS011;55682;51.114;5.882;2024-03-23T15:33:50;1.13;;;1.13;;
68700;SDS011;55682;51.114;5.882;2024-03-23T15:36:16;1.13;;;1.13;;
68700;SDS011;55682;51.114;5.882;2024-03-23T15:38:42;1.21;;;1.21;;
68700;SDS011;55682;51.114;5.882;2024-03-23T15:41:09;0.89;;;0.89;;
68700;SDS011;55682;51.114;5.882;2024-03-23T15:43:35;1.17;;;1.17;;
68700;SDS011;55682;51.114;5.882;2024-03-23T15:46:02;0.84;;;0.84;;
68700;SDS011;55682;51.114;5.882;2024-03-23T15:48:29;1.05;;;1.05;;
68700;SDS011;55682;51.114;5.882;2024-03-23T15:50:57;0.99;;;0.99;;
68700;SDS011;55682;51.114;5.882;2024-03-23T15:53:27;0.97;;;0.97;;
68700;SDS011;55682;51.114;5.882;2024-03-23T15:55:56;0.85;;;0.85;;
68700;SDS011;55682;51.114;5.882;2024-03-23T16:02:12;0.92;;;0.92;;
68700;SDS011;55682;51.114;5.882;2024-03-23T16:04:37;0.78;;;0.77;;